sensor_id;sensor_type;location;lat;lon;timestamp;temperature;humidity
35960;DHT22;22043;50.970;7.192;2022-07-05T00:02:23;17.30;99.90
35960;DHT22;22043;50.970;7.192;2022-07-05T00:04:49;17.20;99.90
35960;DHT22;22043;50.970;7.192;2022-07-05T00:07:19;17.30;99.90
35960;DHT22;22043;50.970;7.192;2022-07-05T00:09:56;17.20;99.90
35960;DHT22;22043;50.970;7.192;2022-07-05T00:12:32;17.10;99.90
35960;DHT22;22043;50.970;7.192;2022-07-05T00:15:02;17.10;99.90
35960;DHT22;22043;50.970;7.192;2022-07-05T00:17:27;17.10;99.90
35960;DHT22;22043;50.970;7.192;2022-07-05T00:19:53;17.00;99.90
35960;DHT22;22043;50.970;7.192;2022-07-05T00:22:19;17.00;99.90
35960;DHT22;22043;50.970;7.192;2022-07-05T00:24:44;17.00;99.90
35960;DHT22;22043;50.970;7.192;2022-07-05T00:27:10;17.00;99.90
35960;DHT22;22043;50.970;7.192;2022-07-05T00:29:36;16.90;99.90
35960;DHT22;22043;50.970;7.192;2022-07-05T00:32:02;16.90;99.90
35960;DHT22;22043;50.970;7.192;2022-07-05T00:34:27;16.90;99.90
35960;DHT22;22043;50.970;7.192;2022-07-05T00:36:53;16.80;99.90
35960;DHT22;22043;50.970;7.192;2022-07-05T00:39:19;16.80;99.90
35960;DHT22;22043;50.970;7.192;2022-07-05T00:41:45;16.80;99.90
35960;DHT22;22043;50.970;7.192;2022-07-05T00:44:11;16.70;99.90
35960;DHT22;22043;50.970;7.192;2022-07-05T00:46:38;16.70;99.90
35960;DHT22;22043;50.970;7.192;2022-07-05T00:49:05;16.70;99.90
35960;DHT22;22043;50.970;7.192;2022-07-05T00:51:33;16.70;99.90
35960;DHT22;22043;50.970;7.192;2022-07-05T00:54:00;16.70;99.90
35960;DHT22;22043;50.970;7.192;2022-07-05T00:56:26;16.60;99.90
35960;DHT22;22043;50.970;7.192;2022-07-05T00:58:51;16.60;99.90
35960;DHT22;22043;50.970;7.192;2022-07-05T01:01:17;16.60;99.90
35960;DHT22;22043;50.970;7.192;2022-07-05T01:03:44;16.70;99.90
35960;DHT22;22043;50.970;7.192;2022-07-05T01:06:11;16.60;99.90
35960;DHT22;22043;50.970;7.192;2022-07-05T01:08:40;16.60;99.90
35960;DHT22;22043;50.970;7.192;2022-07-05T01:11:07;16.60;99.90
35960;DHT22;22043;50.970;7.192;2022-07-05T01:13:33;16.60;99.90
35960;DHT22;22043;50.970;7.192;2022-07-05T01:16:00;16.60;99.90
35960;DHT22;22043;50.970;7.192;2022-07-05T01:18:26;16.50;99.90
35960;DHT22;22043;50.970;7.192;2022-07-05T01:20:52;16.60;99.90
35960;DHT22;22043;50.970;7.192;2022-07-05T01:23:19;16.50;99.90
35960;DHT22;22043;50.970;7.192;2022-07-05T01:25:46;16.50;99.90
35960;DHT22;22043;50.970;7.192;2022-07-05T01:28:12;16.50;99.90
35960;DHT22;22043;50.970;7.192;2022-07-05T01:30:39;16.50;99.90
35960;DHT22;22043;50.970;7.192;2022-07-05T01:33:06;16.50;99.90
35960;DHT22;22043;50.970;7.192;2022-07-05T01:35:33;16.60;99.90
35960;DHT22;22043;50.970;7.192;2022-07-05T01:37:59;16.50;99.90
35960;DHT22;22043;50.970;7.192;2022-07-05T01:40:25;16.50;99.90
35960;DHT22;22043;50.970;7.192;2022-07-05T01:42:51;16.50;99.90
35960;DHT22;22043;50.970;7.192;2022-07-05T01:45:17;16.50;99.90
35960;DHT22;22043;50.970;7.192;2022-07-05T01:48:02;16.50;99.90
35960;DHT22;22043;50.970;7.192;2022-07-05T01:50:30;16.40;99.90
35960;DHT22;22043;50.970;7.192;2022-07-05T01:52:58;16.50;99.90
35960;DHT22;22043;50.970;7.192;2022-07-05T01:55:26;16.40;99.90
35960;DHT22;22043;50.970;7.192;2022-07-05T01:57:52;16.40;99.90
35960;DHT22;22043;50.970;7.192;2022-07-05T02:00:18;16.40;99.90
35960;DHT22;22043;50.970;7.192;2022-07-05T02:02:44;16.40;99.90
35960;DHT22;22043;50.970;7.192;2022-07-05T02:05:11;16.40;99.90
35960;DHT22;22043;50.970;7.192;2022-07-05T02:07:49;16.30;99.90
35960;DHT22;22043;50.970;7.192;2022-07-05T02:10:15;16.20;99.90
35960;DHT22;22043;50.970;7.192;2022-07-05T02:12:41;16.30;99.90
35960;DHT22;22043;50.970;7.192;2022-07-05T02:15:08;16.20;99.90
35960;DHT22;22043;50.970;7.192;2022-07-05T02:17:33;16.20;99.90
35960;DHT22;22043;50.970;7.192;2022-07-05T02:19:59;16.10;99.90
35960;DHT22;22043;50.970;7.192;2022-07-05T02:22:26;16.10;99.90
35960;DHT22;22043;50.970;7.192;2022-07-05T02:24:52;16.10;99.90
35960;DHT22;22043;50.970;7.192;2022-07-05T02:27:21;16.10;99.90
35960;DHT22;22043;50.970;7.192;2022-07-05T02:29:49;16.00;99.90
35960;DHT22;22043;50.970;7.192;2022-07-05T02:32:19;16.00;99.90
35960;DHT22;22043;50.970;7.192;2022-07-05T02:34:45;16.00;99.90
35960;DHT22;22043;50.970;7.192;2022-07-05T02:37:13;16.00;99.90
35960;DHT22;22043;50.970;7.192;2022-07-05T02:39:39;16.00;99.90
35960;DHT22;22043;50.970;7.192;2022-07-05T02:42:07;16.00;99.90
35960;DHT22;22043;50.970;7.192;2022-07-05T02:44:33;16.00;99.90
35960;DHT22;22043;50.970;7.192;2022-07-05T02:46:59;16.00;99.90
35960;DHT22;22043;50.970;7.192;2022-07-05T02:49:26;16.00;99.90
35960;DHT22;22043;50.970;7.192;2022-07-05T02:51:53;16.00;99.90
35960;DHT22;22043;50.970;7.192;2022-07-05T02:54:19;16.00;99.90
35960;DHT22;22043;50.970;7.192;2022-07-05T02:56:44;16.00;99.90
35960;DHT22;22043;50.970;7.192;2022-07-05T02:59:13;16.00;99.90
35960;DHT22;22043;50.970;7.192;2022-07-05T03:01:39;16.10;99.90
35960;DHT22;22043;50.970;7.192;2022-07-05T03:04:10;16.10;99.90
35960;DHT22;22043;50.970;7.192;2022-07-05T03:06:37;16.10;99.90
35960;DHT22;22043;50.970;7.192;2022-07-05T03:09:03;16.10;99.90
35960;DHT22;22043;50.970;7.192;2022-07-05T03:11:29;16.10;99.90
35960;DHT22;22043;50.970;7.192;2022-07-05T03:13:56;16.10;99.90
35960;DHT22;22043;50.970;7.192;2022-07-05T03:16:22;16.10;99.90
35960;DHT22;22043;50.970;7.192;2022-07-05T03:18:50;16.10;99.90
35960;DHT22;22043;50.970;7.192;2022-07-05T03:21:17;16.00;99.90
35960;DHT22;22043;50.970;7.192;2022-07-05T03:23:43;16.00;99.90
35960;DHT22;22043;50.970;7.192;2022-07-05T03:26:09;16.10;99.90
35960;DHT22;22043;50.970;7.192;2022-07-05T03:28:35;16.00;99.90
35960;DHT22;22043;50.970;7.192;2022-07-05T03:31:01;16.00;99.90
35960;DHT22;22043;50.970;7.192;2022-07-05T03:33:29;16.00;99.90
35960;DHT22;22043;50.970;7.192;2022-07-05T03:35:55;16.00;99.90
35960;DHT22;22043;50.970;7.192;2022-07-05T03:38:21;16.00;99.90
35960;DHT22;22043;50.970;7.192;2022-07-05T03:40:46;16.00;99.90
35960;DHT22;22043;50.970;7.192;2022-07-05T03:43:12;15.90;99.90
35960;DHT22;22043;50.970;7.192;2022-07-05T03:45:39;15.90;99.90
35960;DHT22;22043;50.970;7.192;2022-07-05T03:48:06;15.90;99.90
35960;DHT22;22043;50.970;7.192;2022-07-05T03:50:33;15.90;99.90
35960;DHT22;22043;50.970;7.192;2022-07-05T03:52:59;15.90;99.90
35960;DHT22;22043;50.970;7.192;2022-07-05T03:55:26;15.90;99.90
35960;DHT22;22043;50.970;7.192;2022-07-05T03:57:52;15.90;99.90
35960;DHT22;22043;50.970;7.192;2022-07-05T04:00:17;15.90;99.90
35960;DHT22;22043;50.970;7.192;2022-07-05T04:02:51;15.90;99.90
35960;DHT22;22043;50.970;7.192;2022-07-05T04:05:17;15.90;99.90
35960;DHT22;22043;50.970;7.192;2022-07-05T04:07:49;15.90;99.90
35960;DHT22;22043;50.970;7.192;2022-07-05T04:10:17;15.90;99.90
35960;DHT22;22043;50.970;7.192;2022-07-05T04:12:43;15.90;99.90
35960;DHT22;22043;50.970;7.192;2022-07-05T04:15:10;15.90;99.90
35960;DHT22;22043;50.970;7.192;2022-07-05T04:17:49;15.90;99.90
35960;DHT22;22043;50.970;7.192;2022-07-05T04:20:15;15.90;99.90
35960;DHT22;22043;50.970;7.192;2022-07-05T04:22:42;15.90;99.90
35960;DHT22;22043;50.970;7.192;2022-07-05T04:25:09;15.90;99.90
35960;DHT22;22043;50.970;7.192;2022-07-05T04:27:52;16.00;99.90
35960;DHT22;22043;50.970;7.192;2022-07-05T04:30:23;16.00;99.90
35960;DHT22;22043;50.970;7.192;2022-07-05T04:32:49;16.10;99.90
35960;DHT22;22043;50.970;7.192;2022-07-05T04:35:16;16.10;99.90
35960;DHT22;22043;50.970;7.192;2022-07-05T04:37:43;16.10;99.90
35960;DHT22;22043;50.970;7.192;2022-07-05T04:40:12;16.20;99.90
35960;DHT22;22043;50.970;7.192;2022-07-05T04:42:39;16.30;99.90
35960;DHT22;22043;50.970;7.192;2022-07-05T04:45:08;16.30;99.90
35960;DHT22;22043;50.970;7.192;2022-07-05T04:47:35;16.40;99.90
35960;DHT22;22043;50.970;7.192;2022-07-05T04:50:02;16.40;99.90
35960;DHT22;22043;50.970;7.192;2022-07-05T04:52:29;16.50;99.90
35960;DHT22;22043;50.970;7.192;2022-07-05T04:54:54;16.50;99.90
35960;DHT22;22043;50.970;7.192;2022-07-05T04:57:20;16.40;99.90
35960;DHT22;22043;50.970;7.192;2022-07-05T04:59:46;16.30;99.90
35960;DHT22;22043;50.970;7.192;2022-07-05T05:02:11;16.30;99.90
35960;DHT22;22043;50.970;7.192;2022-07-05T05:04:37;16.20;99.90
35960;DHT22;22043;50.970;7.192;2022-07-05T05:07:03;16.20;99.90
35960;DHT22;22043;50.970;7.192;2022-07-05T05:09:29;16.10;99.90
35960;DHT22;22043;50.970;7.192;2022-07-05T05:11:55;16.10;99.90
35960;DHT22;22043;50.970;7.192;2022-07-05T05:14:20;16.10;99.90
35960;DHT22;22043;50.970;7.192;2022-07-05T05:16:46;16.10;99.90
35960;DHT22;22043;50.970;7.192;2022-07-05T05:19:12;16.10;99.90
35960;DHT22;22043;50.970;7.192;2022-07-05T05:21:38;16.20;99.90
35960;DHT22;22043;50.970;7.192;2022-07-05T05:24:04;16.20;99.90
35960;DHT22;22043;50.970;7.192;2022-07-05T05:26:30;16.20;99.90
35960;DHT22;22043;50.970;7.192;2022-07-05T05:28:55;16.30;99.90
35960;DHT22;22043;50.970;7.192;2022-07-05T05:31:21;16.30;99.90
35960;DHT22;22043;50.970;7.192;2022-07-05T05:33:47;16.30;99.90
35960;DHT22;22043;50.970;7.192;2022-07-05T05:36:13;16.30;99.90
35960;DHT22;22043;50.970;7.192;2022-07-05T05:38:39;16.30;99.90
35960;DHT22;22043;50.970;7.192;2022-07-05T05:41:04;16.30;99.90
35960;DHT22;22043;50.970;7.192;2022-07-05T05:43:30;16.30;99.90
35960;DHT22;22043;50.970;7.192;2022-07-05T05:45:56;16.40;99.90
35960;DHT22;22043;50.970;7.192;2022-07-05T05:48:22;16.30;99.90
35960;DHT22;22043;50.970;7.192;2022-07-05T05:50:48;16.40;99.90
35960;DHT22;22043;50.970;7.192;2022-07-05T05:53:13;16.40;99.90
35960;DHT22;22043;50.970;7.192;2022-07-05T05:55:40;16.40;99.90
35960;DHT22;22043;50.970;7.192;2022-07-05T05:58:16;16.40;99.90
35960;DHT22;22043;50.970;7.192;2022-07-05T06:00:42;16.40;99.90
35960;DHT22;22043;50.970;7.192;2022-07-05T06:03:08;16.50;99.90
35960;DHT22;22043;50.970;7.192;2022-07-05T06:05:34;16.50;99.90
35960;DHT22;22043;50.970;7.192;2022-07-05T06:08:00;16.50;99.90
35960;DHT22;22043;50.970;7.192;2022-07-05T06:10:30;16.50;99.90
35960;DHT22;22043;50.970;7.192;2022-07-05T06:12:58;16.50;99.90
35960;DHT22;22043;50.970;7.192;2022-07-05T06:15:24;16.50;99.90
35960;DHT22;22043;50.970;7.192;2022-07-05T06:17:50;16.60;99.90
35960;DHT22;22043;50.970;7.192;2022-07-05T06:20:18;16.70;99.90
35960;DHT22;22043;50.970;7.192;2022-07-05T06:22:44;16.80;99.90
35960;DHT22;22043;50.970;7.192;2022-07-05T06:25:10;16.90;99.90
35960;DHT22;22043;50.970;7.192;2022-07-05T06:27:40;16.90;99.90
35960;DHT22;22043;50.970;7.192;2022-07-05T06:30:07;17.00;99.90
35960;DHT22;22043;50.970;7.192;2022-07-05T06:32:33;17.10;99.90
35960;DHT22;22043;50.970;7.192;2022-07-05T06:34:58;17.10;99.90
35960;DHT22;22043;50.970;7.192;2022-07-05T06:37:24;17.10;99.90
35960;DHT22;22043;50.970;7.192;2022-07-05T06:39:50;17.20;99.90
35960;DHT22;22043;50.970;7.192;2022-07-05T06:42:15;17.20;99.90
35960;DHT22;22043;50.970;7.192;2022-07-05T06:44:41;17.20;99.90
35960;DHT22;22043;50.970;7.192;2022-07-05T06:47:07;17.20;99.90
35960;DHT22;22043;50.970;7.192;2022-07-05T06:49:33;17.20;99.90
35960;DHT22;22043;50.970;7.192;2022-07-05T06:51:59;17.30;99.90
35960;DHT22;22043;50.970;7.192;2022-07-05T06:54:24;17.30;99.90
35960;DHT22;22043;50.970;7.192;2022-07-05T06:56:50;17.30;99.90
35960;DHT22;22043;50.970;7.192;2022-07-05T06:59:16;17.40;99.90
35960;DHT22;22043;50.970;7.192;2022-07-05T07:01:42;17.30;99.90
35960;DHT22;22043;50.970;7.192;2022-07-05T07:04:07;17.40;99.90
35960;DHT22;22043;50.970;7.192;2022-07-05T07:06:33;17.30;99.90
35960;DHT22;22043;50.970;7.192;2022-07-05T07:08:58;17.40;99.90
35960;DHT22;22043;50.970;7.192;2022-07-05T07:11:43;17.40;99.90
35960;DHT22;22043;50.970;7.192;2022-07-05T07:14:10;17.50;99.90
35960;DHT22;22043;50.970;7.192;2022-07-05T07:16:35;17.50;99.90
35960;DHT22;22043;50.970;7.192;2022-07-05T07:19:01;17.50;99.90
35960;DHT22;22043;50.970;7.192;2022-07-05T07:21:27;17.60;99.90
35960;DHT22;22043;50.970;7.192;2022-07-05T07:23:52;17.60;99.90
35960;DHT22;22043;50.970;7.192;2022-07-05T07:26:18;17.70;99.90
35960;DHT22;22043;50.970;7.192;2022-07-05T07:28:44;17.70;99.90
35960;DHT22;22043;50.970;7.192;2022-07-05T07:31:09;17.80;99.90
35960;DHT22;22043;50.970;7.192;2022-07-05T07:33:35;17.80;99.90
35960;DHT22;22043;50.970;7.192;2022-07-05T07:36:01;17.90;99.90
35960;DHT22;22043;50.970;7.192;2022-07-05T07:38:26;17.90;99.90
35960;DHT22;22043;50.970;7.192;2022-07-05T07:40:52;18.00;99.90
35960;DHT22;22043;50.970;7.192;2022-07-05T07:43:18;18.00;99.90
35960;DHT22;22043;50.970;7.192;2022-07-05T07:45:44;18.10;99.90
35960;DHT22;22043;50.970;7.192;2022-07-05T07:48:09;18.10;99.90
35960;DHT22;22043;50.970;7.192;2022-07-05T07:50:35;18.10;99.90
35960;DHT22;22043;50.970;7.192;2022-07-05T07:53:01;18.10;99.90
35960;DHT22;22043;50.970;7.192;2022-07-05T07:55:26;18.10;99.90
35960;DHT22;22043;50.970;7.192;2022-07-05T07:57:52;18.20;99.90
35960;DHT22;22043;50.970;7.192;2022-07-05T08:00:18;18.20;99.90
35960;DHT22;22043;50.970;7.192;2022-07-05T08:02:44;18.20;99.90
35960;DHT22;22043;50.970;7.192;2022-07-05T08:05:09;18.30;99.90
35960;DHT22;22043;50.970;7.192;2022-07-05T08:07:36;18.30;99.90
35960;DHT22;22043;50.970;7.192;2022-07-05T08:10:03;18.40;99.90
35960;DHT22;22043;50.970;7.192;2022-07-05T08:12:29;18.50;99.90
35960;DHT22;22043;50.970;7.192;2022-07-05T08:14:55;18.50;99.90
35960;DHT22;22043;50.970;7.192;2022-07-05T08:17:20;18.40;99.90
35960;DHT22;22043;50.970;7.192;2022-07-05T08:19:46;18.50;99.90
35960;DHT22;22043;50.970;7.192;2022-07-05T08:22:31;18.40;99.90
35960;DHT22;22043;50.970;7.192;2022-07-05T08:24:57;18.50;99.90
35960;DHT22;22043;50.970;7.192;2022-07-05T08:27:23;18.50;99.90
35960;DHT22;22043;50.970;7.192;2022-07-05T08:29:49;18.60;99.90
35960;DHT22;22043;50.970;7.192;2022-07-05T08:32:16;18.60;99.90
35960;DHT22;22043;50.970;7.192;2022-07-05T08:34:41;18.70;99.90
35960;DHT22;22043;50.970;7.192;2022-07-05T08:37:08;18.70;99.90
35960;DHT22;22043;50.970;7.192;2022-07-05T08:39:33;18.60;99.90
35960;DHT22;22043;50.970;7.192;2022-07-05T08:42:00;18.60;99.90
35960;DHT22;22043;50.970;7.192;2022-07-05T08:44:28;18.60;99.90
35960;DHT22;22043;50.970;7.192;2022-07-05T08:46:56;18.70;99.90
35960;DHT22;22043;50.970;7.192;2022-07-05T08:49:24;18.80;99.90
35960;DHT22;22043;50.970;7.192;2022-07-05T08:51:51;18.80;99.90
35960;DHT22;22043;50.970;7.192;2022-07-05T08:54:17;19.00;99.90
35960;DHT22;22043;50.970;7.192;2022-07-05T08:56:44;19.00;99.90
35960;DHT22;22043;50.970;7.192;2022-07-05T08:59:09;19.00;99.90
35960;DHT22;22043;50.970;7.192;2022-07-05T09:01:36;19.10;99.90
35960;DHT22;22043;50.970;7.192;2022-07-05T09:04:06;19.10;99.90
35960;DHT22;22043;50.970;7.192;2022-07-05T09:06:37;19.10;99.90
35960;DHT22;22043;50.970;7.192;2022-07-05T09:09:03;19.10;99.90
35960;DHT22;22043;50.970;7.192;2022-07-05T09:11:38;19.10;99.90
35960;DHT22;22043;50.970;7.192;2022-07-05T09:14:06;19.00;99.90
35960;DHT22;22043;50.970;7.192;2022-07-05T09:16:32;19.00;99.90
35960;DHT22;22043;50.970;7.192;2022-07-05T09:19:05;19.00;99.90
35960;DHT22;22043;50.970;7.192;2022-07-05T09:21:32;19.00;99.90
35960;DHT22;22043;50.970;7.192;2022-07-05T09:24:00;19.10;99.90
35960;DHT22;22043;50.970;7.192;2022-07-05T09:26:35;19.00;99.90
35960;DHT22;22043;50.970;7.192;2022-07-05T09:29:04;19.10;99.90
35960;DHT22;22043;50.970;7.192;2022-07-05T09:31:35;19.20;99.90
35960;DHT22;22043;50.970;7.192;2022-07-05T09:34:14;19.20;99.90
35960;DHT22;22043;50.970;7.192;2022-07-05T09:37:01;19.30;99.90
35960;DHT22;22043;50.970;7.192;2022-07-05T09:42:23;19.40;99.90
35960;DHT22;22043;50.970;7.192;2022-07-05T09:44:56;19.50;99.90
35960;DHT22;22043;50.970;7.192;2022-07-05T09:47:23;19.60;99.90
35960;DHT22;22043;50.970;7.192;2022-07-05T09:49:50;19.50;99.90
35960;DHT22;22043;50.970;7.192;2022-07-05T09:55:09;19.60;99.90
35960;DHT22;22043;50.970;7.192;2022-07-05T09:57:36;19.70;99.90
35960;DHT22;22043;50.970;7.192;2022-07-05T10:00:14;19.70;99.90
35960;DHT22;22043;50.970;7.192;2022-07-05T10:02:43;19.80;99.90
35960;DHT22;22043;50.970;7.192;2022-07-05T10:07:53;19.80;99.90
35960;DHT22;22043;50.970;7.192;2022-07-05T10:10:20;19.70;99.90
35960;DHT22;22043;50.970;7.192;2022-07-05T10:12:47;19.70;99.90
35960;DHT22;22043;50.970;7.192;2022-07-05T10:15:21;19.80;99.90
35960;DHT22;22043;50.970;7.192;2022-07-05T10:18:08;19.90;99.90
35960;DHT22;22043;50.970;7.192;2022-07-05T10:23:05;19.90;99.90
35960;DHT22;22043;50.970;7.192;2022-07-05T10:25:31;19.90;99.90
35960;DHT22;22043;50.970;7.192;2022-07-05T10:27:58;19.70;99.90
35960;DHT22;22043;50.970;7.192;2022-07-05T10:30:25;19.70;99.90
35960;DHT22;22043;50.970;7.192;2022-07-05T10:32:51;19.70;99.90
35960;DHT22;22043;50.970;7.192;2022-07-05T10:35:18;19.80;99.90
35960;DHT22;22043;50.970;7.192;2022-07-05T10:37:45;19.80;99.90
35960;DHT22;22043;50.970;7.192;2022-07-05T10:40:11;19.90;99.90
35960;DHT22;22043;50.970;7.192;2022-07-05T10:42:40;19.90;99.90
35960;DHT22;22043;50.970;7.192;2022-07-05T10:45:48;19.90;99.90
35960;DHT22;22043;50.970;7.192;2022-07-05T10:50:49;19.80;99.90
35960;DHT22;22043;50.970;7.192;2022-07-05T10:53:23;19.80;99.90
35960;DHT22;22043;50.970;7.192;2022-07-05T10:56:13;19.90;99.90
35960;DHT22;22043;50.970;7.192;2022-07-05T10:58:41;20.00;99.90
35960;DHT22;22043;50.970;7.192;2022-07-05T11:06:22;20.20;99.90
35960;DHT22;22043;50.970;7.192;2022-07-05T11:11:27;20.30;99.90
35960;DHT22;22043;50.970;7.192;2022-07-05T11:13:53;20.20;99.90
35960;DHT22;22043;50.970;7.192;2022-07-05T11:16:26;20.20;99.90
35960;DHT22;22043;50.970;7.192;2022-07-05T11:21:33;20.20;99.90
35960;DHT22;22043;50.970;7.192;2022-07-05T11:24:19;20.20;99.90
35960;DHT22;22043;50.970;7.192;2022-07-05T11:26:46;20.20;99.90
35960;DHT22;22043;50.970;7.192;2022-07-05T11:32:07;20.40;99.90
35960;DHT22;22043;50.970;7.192;2022-07-05T11:34:34;20.40;99.90
35960;DHT22;22043;50.970;7.192;2022-07-05T11:37:21;20.50;99.90
35960;DHT22;22043;50.970;7.192;2022-07-05T11:42:33;20.60;99.90
35960;DHT22;22043;50.970;7.192;2022-07-05T11:45:00;20.50;99.90
35960;DHT22;22043;50.970;7.192;2022-07-05T11:47:27;20.60;99.90
35960;DHT22;22043;50.970;7.192;2022-07-05T11:49:53;20.50;99.90
35960;DHT22;22043;50.970;7.192;2022-07-05T11:52:25;20.50;99.90
35960;DHT22;22043;50.970;7.192;2022-07-05T11:54:51;20.40;99.90
35960;DHT22;22043;50.970;7.192;2022-07-05T11:57:19;20.50;99.90
35960;DHT22;22043;50.970;7.192;2022-07-05T11:59:45;20.50;99.90
35960;DHT22;22043;50.970;7.192;2022-07-05T12:02:11;20.50;99.90
35960;DHT22;22043;50.970;7.192;2022-07-05T12:04:37;20.50;99.90
35960;DHT22;22043;50.970;7.192;2022-07-05T12:07:03;20.40;99.90
35960;DHT22;22043;50.970;7.192;2022-07-05T12:09:33;20.30;99.90
35960;DHT22;22043;50.970;7.192;2022-07-05T12:12:22;20.30;99.90
35960;DHT22;22043;50.970;7.192;2022-07-05T12:15:08;20.20;99.90
35960;DHT22;22043;50.970;7.192;2022-07-05T12:17:34;20.20;99.90
35960;DHT22;22043;50.970;7.192;2022-07-05T12:20:00;20.20;99.90
35960;DHT22;22043;50.970;7.192;2022-07-05T12:22:39;20.30;99.90
35960;DHT22;22043;50.970;7.192;2022-07-05T12:25:07;20.30;99.90
35960;DHT22;22043;50.970;7.192;2022-07-05T12:27:35;20.40;99.90
35960;DHT22;22043;50.970;7.192;2022-07-05T12:30:02;20.50;99.90
35960;DHT22;22043;50.970;7.192;2022-07-05T12:32:29;20.50;99.90
35960;DHT22;22043;50.970;7.192;2022-07-05T12:34:56;20.60;99.90
35960;DHT22;22043;50.970;7.192;2022-07-05T12:37:23;20.60;99.80
35960;DHT22;22043;50.970;7.192;2022-07-05T12:40:08;20.60;98.80
35960;DHT22;22043;50.970;7.192;2022-07-05T12:42:36;20.70;99.90
35960;DHT22;22043;50.970;7.192;2022-07-05T12:45:08;20.80;99.00
35960;DHT22;22043;50.970;7.192;2022-07-05T12:47:47;20.90;99.80
35960;DHT22;22043;50.970;7.192;2022-07-05T12:50:12;21.00;98.80
35960;DHT22;22043;50.970;7.192;2022-07-05T12:53:03;21.00;98.30
35960;DHT22;22043;50.970;7.192;2022-07-05T12:55:57;21.00;96.90
35960;DHT22;22043;50.970;7.192;2022-07-05T12:58:49;21.10;95.70
35960;DHT22;22043;50.970;7.192;2022-07-05T13:01:23;21.00;96.60
35960;DHT22;22043;50.970;7.192;2022-07-05T13:09:06;21.10;97.70
35960;DHT22;22043;50.970;7.192;2022-07-05T13:11:32;21.10;98.40
35960;DHT22;22043;50.970;7.192;2022-07-05T13:13:57;21.00;98.70
35960;DHT22;22043;50.970;7.192;2022-07-05T13:16:23;20.90;97.20
35960;DHT22;22043;50.970;7.192;2022-07-05T13:18:49;20.90;97.00
35960;DHT22;22043;50.970;7.192;2022-07-05T13:21:14;20.90;97.00
35960;DHT22;22043;50.970;7.192;2022-07-05T13:23:40;20.80;96.80
35960;DHT22;22043;50.970;7.192;2022-07-05T13:26:05;20.80;96.30
35960;DHT22;22043;50.970;7.192;2022-07-05T13:28:32;20.80;97.40
35960;DHT22;22043;50.970;7.192;2022-07-05T13:30:58;20.90;95.50
35960;DHT22;22043;50.970;7.192;2022-07-05T13:33:24;21.10;96.30
35960;DHT22;22043;50.970;7.192;2022-07-05T13:35:49;21.10;96.30
35960;DHT22;22043;50.970;7.192;2022-07-05T13:38:15;21.10;96.80
35960;DHT22;22043;50.970;7.192;2022-07-05T13:40:40;21.10;96.50
35960;DHT22;22043;50.970;7.192;2022-07-05T13:43:06;21.00;97.30
35960;DHT22;22043;50.970;7.192;2022-07-05T13:45:32;21.10;97.20
35960;DHT22;22043;50.970;7.192;2022-07-05T13:47:58;21.10;96.50
35960;DHT22;22043;50.970;7.192;2022-07-05T13:50:23;21.10;96.70
35960;DHT22;22043;50.970;7.192;2022-07-05T13:52:59;21.20;95.30
35960;DHT22;22043;50.970;7.192;2022-07-05T13:55:25;21.30;95.40
35960;DHT22;22043;50.970;7.192;2022-07-05T13:57:50;21.30;96.50
35960;DHT22;22043;50.970;7.192;2022-07-05T14:00:16;21.50;95.50
35960;DHT22;22043;50.970;7.192;2022-07-05T14:02:43;21.60;95.40
35960;DHT22;22043;50.970;7.192;2022-07-05T14:05:09;21.50;95.50
35960;DHT22;22043;50.970;7.192;2022-07-05T14:07:36;21.50;96.40
35960;DHT22;22043;50.970;7.192;2022-07-05T14:10:03;21.50;95.80
35960;DHT22;22043;50.970;7.192;2022-07-05T14:12:29;21.40;95.80
35960;DHT22;22043;50.970;7.192;2022-07-05T14:14:54;21.40;95.50
35960;DHT22;22043;50.970;7.192;2022-07-05T14:17:20;21.40;95.30
35960;DHT22;22043;50.970;7.192;2022-07-05T14:19:45;21.30;95.50
35960;DHT22;22043;50.970;7.192;2022-07-05T14:22:11;21.30;95.50
35960;DHT22;22043;50.970;7.192;2022-07-05T14:24:37;21.40;96.20
35960;DHT22;22043;50.970;7.192;2022-07-05T14:27:03;21.40;95.50
35960;DHT22;22043;50.970;7.192;2022-07-05T14:29:33;21.50;96.00
35960;DHT22;22043;50.970;7.192;2022-07-05T14:31:58;21.50;95.40
35960;DHT22;22043;50.970;7.192;2022-07-05T14:34:24;21.50;95.30
35960;DHT22;22043;50.970;7.192;2022-07-05T14:36:50;21.40;94.20
35960;DHT22;22043;50.970;7.192;2022-07-05T14:39:15;21.40;94.70
35960;DHT22;22043;50.970;7.192;2022-07-05T14:41:41;21.30;95.10
35960;DHT22;22043;50.970;7.192;2022-07-05T14:44:08;21.20;94.80
35960;DHT22;22043;50.970;7.192;2022-07-05T14:46:34;21.40;95.00
35960;DHT22;22043;50.970;7.192;2022-07-05T14:49:00;21.40;94.80
35960;DHT22;22043;50.970;7.192;2022-07-05T14:51:25;21.40;94.90
35960;DHT22;22043;50.970;7.192;2022-07-05T14:53:51;21.40;95.20
35960;DHT22;22043;50.970;7.192;2022-07-05T14:56:17;21.30;95.90
35960;DHT22;22043;50.970;7.192;2022-07-05T14:58:43;21.30;95.40
35960;DHT22;22043;50.970;7.192;2022-07-05T15:01:10;21.20;95.70
35960;DHT22;22043;50.970;7.192;2022-07-05T15:03:35;21.20;95.60
35960;DHT22;22043;50.970;7.192;2022-07-05T15:06:02;21.20;94.50
35960;DHT22;22043;50.970;7.192;2022-07-05T15:08:29;21.30;94.30
35960;DHT22;22043;50.970;7.192;2022-07-05T15:10:55;21.40;94.30
35960;DHT22;22043;50.970;7.192;2022-07-05T15:13:21;21.40;94.60
35960;DHT22;22043;50.970;7.192;2022-07-05T15:15:46;21.50;94.60
35960;DHT22;22043;50.970;7.192;2022-07-05T15:18:12;21.50;94.80
35960;DHT22;22043;50.970;7.192;2022-07-05T15:20:38;21.60;95.30
35960;DHT22;22043;50.970;7.192;2022-07-05T15:23:03;21.50;94.90
35960;DHT22;22043;50.970;7.192;2022-07-05T15:25:29;21.40;95.10
35960;DHT22;22043;50.970;7.192;2022-07-05T15:27:55;21.40;96.40
35960;DHT22;22043;50.970;7.192;2022-07-05T15:30:20;21.30;96.10
35960;DHT22;22043;50.970;7.192;2022-07-05T15:32:48;21.30;94.80
35960;DHT22;22043;50.970;7.192;2022-07-05T15:35:14;21.40;94.10
35960;DHT22;22043;50.970;7.192;2022-07-05T15:37:41;21.40;93.80
35960;DHT22;22043;50.970;7.192;2022-07-05T15:40:07;21.40;94.10
35960;DHT22;22043;50.970;7.192;2022-07-05T15:42:33;21.40;93.40
35960;DHT22;22043;50.970;7.192;2022-07-05T15:44:59;21.40;94.50
35960;DHT22;22043;50.970;7.192;2022-07-05T15:47:24;21.40;94.80
35960;DHT22;22043;50.970;7.192;2022-07-05T15:49:52;21.40;93.50
35960;DHT22;22043;50.970;7.192;2022-07-05T15:52:18;21.40;94.10
35960;DHT22;22043;50.970;7.192;2022-07-05T15:54:44;21.50;94.00
35960;DHT22;22043;50.970;7.192;2022-07-05T15:57:10;21.50;94.50
35960;DHT22;22043;50.970;7.192;2022-07-05T15:59:36;21.40;94.90
35960;DHT22;22043;50.970;7.192;2022-07-05T16:02:01;21.40;94.10
35960;DHT22;22043;50.970;7.192;2022-07-05T16:04:27;21.30;94.20
35960;DHT22;22043;50.970;7.192;2022-07-05T16:06:57;21.20;94.30
35960;DHT22;22043;50.970;7.192;2022-07-05T16:09:24;21.20;94.60